createdAt,value
2023-05-03T00:02:54.157Z,98839.41
2023-05-03T00:05:57.285Z,98834.19
2023-05-03T00:09:00.542Z,98836.89
2023-05-03T00:12:06.003Z,98831.98
2023-05-03T00:15:10.542Z,98830.10
2023-05-03T00:18:13.556Z,98828.35
2023-05-03T00:21:16.704Z,98832.56
2023-05-03T00:24:19.746Z,98828.77
2023-05-03T00:27:24.324Z,98825.30
2023-05-03T00:30:27.488Z,98825.61
2023-05-03T00:33:30.684Z,98824.51
2023-05-03T00:36:35.747Z,98822.05
2023-05-03T00:39:40.280Z,98827.34
2023-05-03T00:42:43.290Z,98826.55
2023-05-03T00:45:47.606Z,98823.80
2023-05-03T00:48:51.450Z,98827.84
2023-05-03T00:51:54.756Z,98828.06
2023-05-03T00:54:58.020Z,98827.66
2023-05-03T00:58:01.229Z,98828.70
2023-05-03T01:01:04.301Z,98823.95
2023-05-03T01:04:07.513Z,98826.95
2023-05-03T01:07:19.250Z,98828.62
2023-05-03T01:10:42.176Z,98831.38
2023-05-03T01:14:06.321Z,98835.25
2023-05-03T01:17:12.700Z,98832.65
2023-05-03T01:20:24.888Z,98833.52
2023-05-03T01:23:32.903Z,98833.29
2023-05-03T01:26:37.274Z,98831.64
2023-05-03T01:29:40.498Z,98832.91
2023-05-03T01:33:03.097Z,98832.66
2023-05-03T01:36:16.384Z,98834.96
2023-05-03T01:39:52.953Z,98837.48
2023-05-03T01:42:57.147Z,98839.23
2023-05-03T01:46:00.446Z,98844.51
2023-05-03T01:49:03.643Z,98846.55
2023-05-03T01:52:06.747Z,98850.99
2023-05-03T01:55:09.855Z,98848.92
2023-05-03T01:58:12.963Z,98846.71
2023-05-03T02:01:16.016Z,98848.63
2023-05-03T02:04:19.034Z,98849.25
2023-05-03T02:07:22.006Z,98851.31
2023-05-03T02:10:25.432Z,98851.31
2023-05-03T02:13:31.818Z,98851.71
2023-05-03T02:16:34.891Z,98849.10
2023-05-03T02:19:37.940Z,98852.35
2023-05-03T02:22:41.053Z,98852.04
2023-05-03T02:25:44.094Z,98851.16
2023-05-03T02:28:47.084Z,98850.31
2023-05-03T02:31:50.042Z,98855.36
2023-05-03T02:34:54.055Z,98860.19
2023-05-03T02:37:57.521Z,98860.98
2023-05-03T02:41:00.696Z,98863.02
2023-05-03T02:44:03.871Z,98862.71
2023-05-03T02:47:07.521Z,98861.77
2023-05-03T02:50:12.275Z,98866.73
2023-05-03T02:53:15.800Z,98868.72
2023-05-03T02:56:18.941Z,98872.51
2023-05-03T02:59:21.959Z,98874.23
2023-05-03T03:02:25.149Z,98874.95
2023-05-03T03:05:28.144Z,98878.28
2023-05-03T03:08:31.258Z,98878.44
2023-05-03T03:11:35.348Z,98877.34
2023-05-03T03:14:38.631Z,98881.36
2023-05-03T03:17:41.806Z,98877.98
2023-05-03T03:20:45.425Z,98879.23
2023-05-03T03:23:49.065Z,98874.11
2023-05-03T03:26:52.110Z,98882.09
2023-05-03T03:29:55.451Z,98884.93
2023-05-03T03:32:58.479Z,98880.20
2023-05-03T03:36:07.803Z,98880.60
2023-05-03T03:39:11.578Z,98881.14
2023-05-03T03:42:19.122Z,98885.80
2023-05-03T03:45:23.779Z,98886.52
2023-05-03T03:48:26.937Z,98890.86
2023-05-03T03:51:30.123Z,98888.57
2023-05-03T03:54:35.818Z,98892.03
2023-05-03T03:57:39.222Z,98898.43
2023-05-03T04:00:42.850Z,98900.49
2023-05-03T04:03:48.181Z,98900.24
2023-05-03T04:06:51.713Z,98908.00
2023-05-03T04:09:56.670Z,98910.04
2023-05-03T04:13:00.839Z,98913.98
2023-05-03T04:16:06.351Z,98915.64
2023-05-03T04:19:09.979Z,98917.85
2023-05-03T04:22:14.536Z,98920.69
2023-05-03T04:25:18.303Z,98928.59
2023-05-03T04:28:27.210Z,98931.27
2023-05-03T04:31:30.872Z,98940.10
2023-05-03T04:34:34.099Z,98944.45
2023-05-03T04:37:40.137Z,98944.52
2023-05-03T04:40:43.486Z,98948.07
2023-05-03T04:43:46.687Z,98952.34
2023-05-03T04:46:51.144Z,98957.06
2023-05-03T04:49:54.597Z,98958.33
2023-05-03T04:52:58.345Z,98964.66
2023-05-03T04:56:01.615Z,98967.48
2023-05-03T04:59:05.694Z,98965.44
2023-05-03T05:02:08.981Z,98966.54
2023-05-03T05:05:12.244Z,98971.19
2023-05-03T05:08:16.102Z,98970.64
2023-05-03T05:11:24.182Z,98973.17
2023-05-03T05:14:30.554Z,98975.76
2023-05-03T05:17:34.024Z,98976.71
2023-05-03T05:20:37.667Z,98981.36
2023-05-03T05:23:40.975Z,98984.60
2023-05-03T05:26:44.502Z,98986.89
2023-05-03T05:29:48.483Z,98994.46
2023-05-03T05:32:51.589Z,98995.25
2023-05-03T05:35:55.678Z,98994.77
2023-05-03T05:38:59.104Z,98999.74
2023-05-03T05:42:02.887Z,99002.02
2023-05-03T05:45:08.141Z,99005.27
2023-05-03T05:48:11.606Z,99011.49
2023-05-03T05:51:14.884Z,99015.27
2023-05-03T05:54:18.123Z,99018.91
2023-05-03T05:57:21.536Z,99020.56
2023-05-03T06:00:25.212Z,99020.72
2023-05-03T06:03:28.404Z,99018.43
2023-05-03T06:06:31.725Z,99016.46
2023-05-03T06:09:34.883Z,99017.96
2023-05-03T06:12:39.561Z,99018.83
2023-05-03T06:15:47.127Z,99022.80
2023-05-03T06:18:50.798Z,99027.36
2023-05-03T06:21:53.900Z,99027.92
2023-05-03T06:24:57.975Z,99030.20
2023-05-03T06:28:01.336Z,99030.70
2023-05-03T06:31:07.324Z,99026.51
2023-05-03T06:34:10.623Z,99031.10
2023-05-03T06:37:15.454Z,99036.38
2023-05-03T06:40:18.801Z,99037.89
2023-05-03T06:43:22.313Z,99043.73
2023-05-03T06:46:29.088Z,99050.20
2023-05-03T06:49:32.749Z,99050.68
2023-05-03T06:52:35.858Z,99054.46
2023-05-03T06:55:38.899Z,99052.27
2023-05-03T06:58:41.827Z,99056.12
2023-05-03T07:01:44.893Z,99060.24
2023-05-03T07:04:47.964Z,99059.24
2023-05-03T07:07:51.126Z,99058.84
2023-05-03T07:10:54.219Z,99059.23
2023-05-03T07:13:57.260Z,99062.38
2023-05-03T07:17:00.375Z,99065.30
2023-05-03T07:20:04.567Z,99066.48
2023-05-03T07:23:07.777Z,99069.64
2023-05-03T07:26:10.879Z,99072.08
2023-05-03T07:29:14.461Z,99069.72
2023-05-03T07:32:17.939Z,99077.70
2023-05-03T07:35:21.149Z,99077.23
2023-05-03T07:38:24.131Z,99078.27
2023-05-03T07:41:27.380Z,99081.66
2023-05-03T07:44:31.121Z,99081.42
2023-05-03T07:47:37.838Z,99079.77
2023-05-03T07:50:44.627Z,99087.11
2023-05-03T07:53:48.555Z,99081.42
2023-05-03T07:56:52.381Z,99079.21
2023-05-03T07:59:56.628Z,99081.80
2023-05-03T08:03:01.612Z,99084.27
2023-05-03T08:06:05.780Z,99082.84
2023-05-03T08:09:09.340Z,99081.03
2023-05-03T08:12:12.540Z,99083.48
2023-05-03T08:15:15.580Z,99077.80
2023-05-03T08:18:19.242Z,99078.96
2023-05-03T08:21:24.866Z,99080.95
2023-05-03T08:24:28.103Z,99078.17
2023-05-03T08:27:31.703Z,99079.52
2023-05-03T08:30:37.273Z,99077.38
2023-05-03T08:33:40.430Z,99080.29
2023-05-03T08:36:43.470Z,99084.23
2023-05-03T08:39:47.561Z,99090.00
2023-05-03T08:42:50.702Z,99092.54
2023-05-03T08:45:53.784Z,99092.42
2023-05-03T08:48:58.861Z,99098.98
2023-05-03T08:52:02.411Z,99097.66
2023-05-03T08:55:05.656Z,99102.40
2023-05-03T08:58:12.964Z,99109.05
2023-05-03T09:01:16.641Z,99108.66
2023-05-03T09:04:19.756Z,99108.52
2023-05-03T09:07:22.974Z,99109.38
2023-05-03T09:10:26.223Z,99106.85
2023-05-03T09:13:33.072Z,99104.86
2023-05-03T09:16:36.228Z,99103.66
2023-05-03T09:19:56.373Z,99098.10
2023-05-03T09:22:59.549Z,99102.84
2023-05-03T09:26:02.652Z,99102.81
2023-05-03T09:29:05.752Z,99104.05
2023-05-03T09:32:09.106Z,99103.15
2023-05-03T09:35:13.777Z,99106.06
2023-05-03T09:38:33.746Z,99112.53
2023-05-03T09:41:36.861Z,99113.00
2023-05-03T09:44:53.906Z,99116.27
2023-05-03T09:47:57.809Z,99118.66
2023-05-03T09:51:00.807Z,99121.59
2023-05-03T09:54:04.541Z,99120.33
2023-05-03T09:57:08.673Z,99118.02
2023-05-03T10:00:14.513Z,99119.09
2023-05-03T10:03:47.637Z,99113.98
2023-05-03T10:06:51.656Z,99110.15
2023-05-03T10:09:57.157Z,99111.83
2023-05-03T10:13:03.181Z,99112.65
2023-05-03T10:16:11.887Z,99111.51
2023-05-03T10:19:21.756Z,99113.04
2023-05-03T10:22:24.949Z,99109.02
2023-05-03T10:25:27.910Z,99106.98
2023-05-03T10:28:33.775Z,99105.48
2023-05-03T10:31:48.265Z,99105.64
2023-05-03T10:34:58.432Z,99105.33
2023-05-03T10:38:16.816Z,99105.52
2023-05-03T10:41:27.274Z,99105.50
2023-05-03T10:44:54.309Z,99108.46
2023-05-03T10:48:12.651Z,99110.39
2023-05-03T10:51:38.894Z,99115.02
2023-05-03T10:54:41.978Z,99116.20
2023-05-03T10:57:46.907Z,99114.86
2023-05-03T11:00:51.492Z,99115.27
2023-05-03T11:04:03.897Z,99112.51
2023-05-03T11:07:07.138Z,99111.41
2023-05-03T11:10:17.797Z,99113.25
2023-05-03T11:13:20.897Z,99112.59
2023-05-03T11:16:24.507Z,99115.70
2023-05-03T11:19:28.888Z,99119.81
2023-05-03T11:22:32.678Z,99123.88
2023-05-03T11:25:35.746Z,99126.57
2023-05-03T11:28:43.236Z,99128.97
2023-05-03T11:31:46.488Z,99126.84
2023-05-03T11:34:49.540Z,99128.29
2023-05-03T11:37:54.130Z,99129.40
2023-05-03T11:40:57.636Z,99130.52
2023-05-03T11:44:15.143Z,99130.36
2023-05-03T11:47:21.887Z,99129.26
2023-05-03T11:50:55.795Z,99127.52
2023-05-03T11:54:13.031Z,99128.31
2023-05-03T11:57:25.908Z,99120.34
2023-05-03T12:00:30.125Z,99119.70
2023-05-03T12:03:33.887Z,99115.89
2023-05-03T12:06:38.455Z,99112.41
2023-05-03T12:09:44.805Z,99111.68
2023-05-03T12:13:02.189Z,99112.07
2023-05-03T12:16:12.712Z,99112.13
2023-05-03T12:19:30.907Z,99109.81
2023-05-03T12:22:35.131Z,99113.11
2023-05-03T12:25:39.548Z,99109.20
2023-05-03T12:28:43.508Z,99103.90
2023-05-03T12:31:49.186Z,99096.20
2023-05-03T12:34:57.059Z,99093.79
2023-05-03T12:38:03.053Z,99086.95
2023-05-03T12:41:08.967Z,99086.36
2023-05-03T12:44:13.305Z,99078.84
2023-05-03T12:47:27.932Z,99079.34
2023-05-03T12:50:32.622Z,99075.10
2023-05-03T12:53:39.181Z,99074.19
2023-05-03T12:56:47.568Z,99072.88
2023-05-03T12:59:58.603Z,99073.31
2023-05-03T13:06:13.983Z,99070.98
2023-05-03T13:09:21.625Z,99069.02
2023-05-03T13:12:27.408Z,99070.63
2023-05-03T13:15:30.537Z,99067.20
2023-05-03T13:18:33.536Z,99067.02
2023-05-03T13:21:36.547Z,99065.39
2023-05-03T13:24:41.296Z,99067.35
2023-05-03T13:27:46.858Z,99066.94
2023-05-03T13:30:49.943Z,99061.20
2023-05-03T13:33:56.961Z,99058.60
2023-05-03T13:37:01.513Z,99056.27
2023-05-03T13:40:05.523Z,99054.16
2023-05-03T13:43:08.659Z,99051.01
2023-05-03T13:46:12.635Z,99052.38
2023-05-03T13:49:15.993Z,99044.07
2023-05-03T13:52:19.030Z,99043.58
2023-05-03T13:55:22.740Z,99043.45
2023-05-03T13:58:26.198Z,99042.48
2023-05-03T14:01:29.584Z,99037.39
2023-05-03T14:04:32.671Z,99040.33
2023-05-03T14:07:35.772Z,99038.80
2023-05-03T14:10:39.441Z,99043.94
2023-05-03T14:13:55.393Z,99041.11
2023-05-03T14:16:59.839Z,99041.05
2023-05-03T14:20:06.964Z,99039.50
2023-05-03T14:23:10.322Z,99043.12
2023-05-03T14:26:14.201Z,99036.88
2023-05-03T14:29:17.618Z,99039.50
2023-05-03T14:32:23.293Z,99037.39
2023-05-03T14:35:26.889Z,99039.39
2023-05-03T14:38:30.063Z,99037.11
2023-05-03T14:41:33.445Z,99038.52
2023-05-03T14:44:37.111Z,99039.54
2023-05-03T14:47:44.016Z,99040.44
2023-05-03T14:50:51.569Z,99037.34
2023-05-03T14:53:55.200Z,99039.55
2023-05-03T14:56:58.516Z,99044.19
2023-05-03T15:00:03.068Z,99045.02
2023-05-03T15:03:08.471Z,99047.86
2023-05-03T15:06:11.701Z,99045.63
2023-05-03T15:09:15.186Z,99044.26
2023-05-03T15:12:18.372Z,99045.34
2023-05-03T15:15:21.808Z,99048.21
2023-05-03T15:18:27.586Z,99051.02
2023-05-03T15:21:30.889Z,99048.89
2023-05-03T15:24:34.227Z,99049.05
2023-05-03T15:27:37.305Z,99050.48
2023-05-03T15:30:40.295Z,99048.43
2023-05-03T15:33:44.662Z,99050.84
2023-05-03T15:36:47.686Z,99051.01
2023-05-03T15:39:50.859Z,99055.94
2023-05-03T15:42:54.119Z,99055.42
2023-05-03T15:45:57.434Z,99055.43
2023-05-03T15:49:01.328Z,99053.64
2023-05-03T15:52:04.915Z,99056.11
2023-05-03T15:55:09.538Z,99053.27
2023-05-03T15:58:12.767Z,99047.52
2023-05-03T16:01:16.311Z,99043.63
2023-05-03T16:04:19.296Z,99044.65
2023-05-03T16:07:22.286Z,99042.36
2023-05-03T16:10:26.545Z,99039.60
2023-05-03T16:13:30.145Z,99040.70
2023-05-03T16:16:33.250Z,99042.45
2023-05-03T16:19:37.629Z,99042.23
2023-05-03T16:22:40.730Z,99039.84
2023-05-03T16:25:43.775Z,99039.94
2023-05-03T16:28:48.154Z,99036.64
2023-05-03T16:31:53.021Z,99037.36
2023-05-03T16:34:56.868Z,99033.91
2023-05-03T16:38:00.671Z,99034.42
2023-05-03T16:41:03.713Z,99035.23
2023-05-03T16:44:08.489Z,99035.48
2023-05-03T16:47:11.596Z,99032.06
2023-05-03T16:50:17.704Z,99034.22
2023-05-03T16:53:22.127Z,99036.98
2023-05-03T16:56:26.413Z,99039.45
2023-05-03T16:59:29.621Z,99037.57
2023-05-03T17:02:32.791Z,99036.64
2023-05-03T17:05:36.015Z,99036.81
2023-05-03T17:08:39.883Z,99038.34
2023-05-03T17:11:42.977Z,99042.05
2023-05-03T17:14:46.043Z,99045.69
2023-05-03T17:17:49.116Z,99047.85
2023-05-03T17:20:52.794Z,99050.70
2023-05-03T17:23:55.775Z,99050.30
2023-05-03T17:26:58.952Z,99054.83
2023-05-03T17:30:03.568Z,99055.48
2023-05-03T17:33:06.725Z,99059.59
2023-05-03T17:36:09.750Z,99056.75
2023-05-03T17:39:13.098Z,99058.10
2023-05-03T17:42:16.339Z,99058.26
2023-05-03T17:45:19.511Z,99057.25
2023-05-03T17:48:22.709Z,99061.69
2023-05-03T17:51:25.820Z,99061.61
2023-05-03T17:54:29.537Z,99064.15
2023-05-03T17:57:32.729Z,99063.45
2023-05-03T18:00:35.819Z,99066.14
2023-05-03T18:03:39.157Z,99069.55
2023-05-03T18:06:42.161Z,99073.34
2023-05-03T18:09:45.728Z,99077.00
2023-05-03T18:12:48.734Z,99078.19
2023-05-03T18:15:51.784Z,99081.64
2023-05-03T18:18:54.941Z,99084.15
2023-05-03T18:21:58.257Z,99088.34
2023-05-03T18:25:03.209Z,99089.82
2023-05-03T18:28:06.354Z,99085.14
2023-05-03T18:31:11.419Z,99088.84
2023-05-03T18:34:14.576Z,99098.77
2023-05-03T18:37:17.912Z,99099.35
2023-05-03T18:40:21.159Z,99100.35
2023-05-03T18:43:24.846Z,99104.58
2023-05-03T18:46:27.987Z,99108.09
2023-05-03T18:49:31.093Z,99108.61
2023-05-03T18:52:34.058Z,99108.11
2023-05-03T18:55:37.397Z,99106.81
2023-05-03T18:58:40.404Z,99106.59
2023-05-03T19:01:43.362Z,99107.55
2023-05-03T19:04:46.548Z,99104.74
2023-05-03T19:07:49.667Z,99105.73
2023-05-03T19:10:52.667Z,99109.29
2023-05-03T19:13:55.719Z,99108.58
2023-05-03T19:16:58.769Z,99111.38
2023-05-03T19:20:02.090Z,99107.78
2023-05-03T19:23:05.514Z,99112.41
2023-05-03T19:26:08.588Z,99114.25
2023-05-03T19:29:11.546Z,99114.05
2023-05-03T19:32:14.655Z,99115.27
2023-05-03T19:35:17.813Z,99116.40
2023-05-03T19:38:20.929Z,99113.84
2023-05-03T19:41:26.108Z,99113.27
2023-05-03T19:44:33.380Z,99109.53
2023-05-03T19:47:36.416Z,99111.54
2023-05-03T19:50:39.382Z,99110.47
2023-05-03T19:53:42.656Z,99109.56
2023-05-03T19:56:45.800Z,99111.75
2023-05-03T19:59:48.975Z,99107.55
2023-05-03T20:02:52.115Z,99108.84
2023-05-03T20:05:55.280Z,99107.69
2023-05-03T20:08:58.345Z,99105.92
2023-05-03T20:12:02.291Z,99107.74
2023-05-03T20:15:06.514Z,99105.93
2023-05-03T20:18:09.880Z,99101.27
2023-05-03T20:21:13.911Z,99098.70
2023-05-03T20:24:16.938Z,99094.98
2023-05-03T20:27:19.894Z,99096.99
2023-05-03T20:30:23.085Z,99098.08
2023-05-03T20:33:26.491Z,99094.33
2023-05-03T20:36:29.582Z,99097.70
2023-05-03T20:39:34.126Z,99099.36
2023-05-03T20:42:37.241Z,99097.11
2023-05-03T20:45:40.320Z,99095.64
2023-05-03T20:48:43.468Z,99101.73
2023-05-03T20:51:47.485Z,99103.62
2023-05-03T20:54:50.507Z,99105.56
2023-05-03T20:57:53.537Z,99108.08
2023-05-03T21:00:57.829Z,99110.38
2023-05-03T21:04:02.933Z,99107.07
2023-05-03T21:07:05.987Z,99103.89
2023-05-03T21:10:09.548Z,99103.54
2023-05-03T21:13:12.570Z,99101.92
2023-05-03T21:16:15.776Z,99101.96
2023-05-03T21:19:18.783Z,99099.77
2023-05-03T21:22:21.888Z,99096.98
2023-05-03T21:25:24.906Z,99092.84
2023-05-03T21:28:30.224Z,99094.13
2023-05-03T21:31:33.381Z,99095.56
2023-05-03T21:34:36.448Z,99095.94
2023-05-03T21:37:39.630Z,99095.11
2023-05-03T21:40:42.630Z,99096.10
2023-05-03T21:43:45.693Z,99094.49
2023-05-03T21:46:48.748Z,99096.52
2023-05-03T21:49:51.754Z,99095.95
2023-05-03T21:52:54.714Z,99093.85
2023-05-03T21:55:57.680Z,99096.25
2023-05-03T21:59:00.656Z,99098.80
2023-05-03T22:02:05.676Z,99101.60
2023-05-03T22:05:09.306Z,99104.40
2023-05-03T22:08:14.328Z,99103.37
2023-05-03T22:11:17.672Z,99102.52
2023-05-03T22:14:20.919Z,99101.74
2023-05-03T22:17:24.895Z,99102.90
2023-05-03T22:20:29.956Z,99100.25
2023-05-03T22:23:33.147Z,99102.44
2023-05-03T22:26:36.262Z,99095.27
2023-05-03T22:29:39.333Z,99090.30
2023-05-03T22:32:42.567Z,99092.61
2023-05-03T22:35:46.006Z,99092.41
2023-05-03T22:38:49.192Z,99097.88
2023-05-03T22:41:52.146Z,99099.19
2023-05-03T22:44:56.951Z,99091.05
2023-05-03T22:48:00.523Z,99092.55
2023-05-03T22:51:03.719Z,99087.02
2023-05-03T22:54:06.683Z,99087.31
2023-05-03T22:57:10.205Z,99087.57
2023-05-03T23:00:13.650Z,99090.75
2023-05-03T23:03:17.086Z,99085.98
2023-05-03T23:06:20.114Z,99088.64
2023-05-03T23:09:23.112Z,99085.39
2023-05-03T23:12:26.101Z,99078.95
2023-05-03T23:15:29.609Z,99076.23
2023-05-03T23:18:32.754Z,99076.02
2023-05-03T23:21:35.780Z,99077.02
2023-05-03T23:24:39.674Z,99076.91
2023-05-03T23:27:43.471Z,99075.11
2023-05-03T23:30:46.736Z,99073.52
2023-05-03T23:33:50.159Z,99073.54
2023-05-03T23:36:53.292Z,99073.20
2023-05-03T23:39:56.367Z,99072.97
2023-05-03T23:42:59.391Z,99073.15
2023-05-03T23:46:02.383Z,99076.36
2023-05-03T23:49:05.737Z,99076.27
2023-05-03T23:52:09.835Z,99075.58
2023-05-03T23:55:12.816Z,99071.20
2023-05-03T23:58:15.836Z,99069.40
